Time;durP1;ratioP1;P1;durP2;ratioP2;P2;SDS_P1;SDS_P2;PMS_P1;PMS_P2;Temp;Humidity;BMP_temperature;BMP_pressure;BME280_temperature;BME280_humidity;BME280_pressure;Samples;Min_cycle;Max_cycle;Signal;HPM_P1;HPM_P2
2023/09/06 00:01:56;;;;;;;2.67;2.47;;;18.00;93.60;;;;;;5877859;30;20052;-79
2023/09/06 00:04:58;;;;;;;6.25;2.45;;;18.10;93.60;;;;;;5879054;30;20522;-78
2023/09/06 00:08:02;;;;;;;6.18;3.20;;;18.10;93.70;;;;;;5877542;30;20053;-78
2023/09/06 00:11:06;;;;;;;4.05;2.70;;;18.10;93.70;;;;;;5878658;30;20501;-81
2023/09/06 00:14:08;;;;;;;3.85;2.75;;;18.20;93.70;;;;;;5876862;29;20056;-78
2023/09/06 00:17:11;;;;;;;3.53;2.85;;;18.20;93.60;;;;;;5877441;30;20052;-79
2023/09/06 00:20:19;;;;;;;3.13;2.58;;;18.20;93.70;;;;;;5878095;29;20059;-79
2023/09/06 00:23:21;;;;;;;;;;;18.20;93.60;;;;;;5880165;30;20061;-78
2023/09/06 00:26:23;;;;;;;2.60;2.35;;;18.10;93.60;;;;;;5878841;30;19931;-80
2023/09/06 00:29:24;;;;;;;7.25;3.17;;;18.10;93.40;;;;;;5879460;29;20060;-78
2023/09/06 00:32:28;;;;;;;2.85;2.42;;;18.00;93.50;;;;;;5877409;30;20469;-79
2023/09/06 00:35:31;;;;;;;3.00;2.70;;;17.90;93.60;;;;;;5877510;30;20468;-77
2023/09/06 00:38:32;;;;;;;4.13;2.47;;;17.80;93.80;;;;;;5878286;30;20056;-80
2023/09/06 00:41:34;;;;;;;4.20;2.30;;;17.70;94.00;;;;;;5877879;30;20056;-80
2023/09/06 00:44:36;;;;;;;4.80;3.13;;;17.70;94.10;;;;;;5878038;30;20052;-78
2023/09/06 00:47:39;;;;;;;2.95;2.65;;;17.60;94.20;;;;;;5876819;30;20056;-81
2023/09/06 00:50:42;;;;;;;3.53;2.75;;;17.60;94.40;;;;;;5905479;29;20452;-78
2023/09/06 00:53:44;;;;;;;3.88;2.83;;;17.40;94.40;;;;;;6100365;29;20055;-80
2023/09/06 00:56:46;;;;;;;3.72;2.70;;;17.30;94.50;;;;;;6139855;28;20047;-80
2023/09/06 00:59:50;;;;;;;5.05;3.63;;;17.30;94.70;;;;;;6143540;28;20380;-79
2023/09/06 01:02:53;;;;;;;4.68;3.10;;;17.20;94.90;;;;;;6144551;29;20050;-80
2023/09/06 01:06:02;;;;;;;4.10;3.22;;;17.10;95.00;;;;;;6150867;28;20227;-79
2023/09/06 01:09:05;;;;;;;4.32;3.83;;;17.00;95.20;;;;;;6151446;28;20054;-78
2023/09/06 01:12:09;;;;;;;4.10;3.13;;;16.90;95.30;;;;;;6150297;28;20540;-80
2023/09/06 01:15:12;;;;;;;6.28;3.13;;;16.80;95.50;;;;;;6151434;29;20472;-79
2023/09/06 01:18:15;;;;;;;3.92;3.13;;;16.70;95.80;;;;;;6142499;28;20102;-80
2023/09/06 01:21:22;;;;;;;4.40;3.20;;;16.70;96.10;;;;;;6148455;28;20054;-78
2023/09/06 01:24:28;;;;;;;8.07;3.30;;;16.60;96.30;;;;;;6150709;28;20178;-79
2023/09/06 01:27:29;;;;;;;5.43;3.95;;;16.60;96.40;;;;;;6150890;29;20186;-79
2023/09/06 01:30:32;;;;;;;3.42;3.13;;;16.60;96.50;;;;;;6149674;28;20368;-79
2023/09/06 01:33:33;;;;;;;5.97;3.70;;;16.60;96.70;;;;;;6142844;29;20456;-80
2023/09/06 01:36:35;;;;;;;4.50;4.00;;;16.50;96.80;;;;;;6141865;29;20044;-79
2023/09/06 01:39:38;;;;;;;3.75;3.22;;;16.50;97.00;;;;;;6144266;29;20048;-80
2023/09/06 01:42:40;;;;;;;4.03;3.60;;;16.40;97.10;;;;;;6136810;29;20055;-79
2023/09/06 01:45:45;;;;;;;3.72;2.70;;;16.40;97.30;;;;;;6151588;28;20450;-79
2023/09/06 01:48:47;;;;;;;5.25;3.28;;;16.40;97.40;;;;;;6143842;29;20397;-79
2023/09/06 01:51:49;;;;;;;8.00;3.17;;;16.30;97.50;;;;;;6079947;28;20052;-79
2023/09/06 01:54:52;;;;;;;5.43;3.47;;;16.30;97.60;;;;;;6126795;29;20070;-79
2023/09/06 01:57:53;;;;;;;5.03;3.08;;;16.30;97.80;;;;;;6144307;28;20457;-79
2023/09/06 02:00:55;;;;;;;6.47;3.55;;;16.20;97.80;;;;;;6154449;28;20053;-81
2023/09/06 02:03:57;;;;;;;6.25;4.05;;;16.20;97.90;;;;;;6148433;28;20051;-81
2023/09/06 02:06:58;;;;;;;5.95;3.78;;;16.10;98.10;;;;;;6155482;29;20050;-81
2023/09/06 02:10:03;;;;;;;4.30;3.47;;;16.00;98.30;;;;;;6140119;28;20047;-80
2023/09/06 02:13:05;;;;;;;5.53;3.55;;;16.00;98.50;;;;;;6147962;28;20055;-81
2023/09/06 02:16:07;;;;;;;4.90;3.10;;;16.00;98.70;;;;;;6156089;28;20047;-79
2023/09/06 02:19:09;;;;;;;5.15;3.22;;;15.90;98.80;;;;;;6155952;29;20047;-80
2023/09/06 02:22:11;;;;;;;5.30;4.07;;;15.80;99.10;;;;;;6147792;28;20051;-80
2023/09/06 02:25:15;;;;;;;3.90;3.47;;;15.80;99.00;;;;;;6138871;28;20051;-79
2023/09/06 02:28:17;;;;;;;8.88;4.68;;;15.70;99.10;;;;;;6140009;28;20047;-80
2023/09/06 02:31:19;;;;;;;4.55;3.53;;;15.60;99.30;;;;;;6132846;29;20060;-80
2023/09/06 02:34:21;;;;;;;8.60;4.03;;;15.50;99.50;;;;;;6147429;28;20059;-81
2023/09/06 02:37:22;;;;;;;4.05;2.97;;;15.40;99.70;;;;;;6147177;28;20475;-81
2023/09/06 02:40:25;;;;;;;4.80;3.22;;;15.40;99.90;;;;;;6131461;28;20050;-80
2023/09/06 02:43:27;;;;;;;4.50;3.67;;;15.30;99.90;;;;;;6147635;29;20463;-80
2023/09/06 02:46:29;;;;;;;7.72;3.95;;;15.30;99.90;;;;;;6130514;28;20044;-79
2023/09/06 02:49:32;;;;;;;7.18;4.78;;;15.10;99.90;;;;;;6128209;28;20052;-81
2023/09/06 02:52:35;;;;;;;6.32;3.80;;;15.00;99.90;;;;;;6130635;28;1067408;-80
2023/09/06 02:55:38;;;;;;;4.25;3.85;;;14.90;99.90;;;;;;6180050;28;20058;-80
2023/09/06 02:58:42;;;;;;;7.57;3.88;;;14.90;99.90;;;;;;6179167;28;20055;-82
2023/09/06 03:01:44;;;;;;;5.18;4.38;;;14.90;99.90;;;;;;6178670;28;20106;-80
2023/09/06 03:04:46;;;;;;;5.47;4.00;;;14.90;99.90;;;;;;6178916;28;20545;-80
2023/09/06 03:07:53;;;;;;;3.88;2.83;;;15.00;99.90;;;;;;6178817;28;20685;-80
2023/09/06 03:10:56;;;;;;;4.45;3.08;;;15.00;99.90;;;;;;6178489;28;20054;-80
2023/09/06 03:13:58;;;;;;;5.35;3.85;;;15.00;99.90;;;;;;6178896;28;20046;-80
2023/09/06 03:17:08;;;;;;;6.00;4.78;;;14.90;99.90;;;;;;6179167;28;20047;-80
2023/09/06 03:20:19;;;;;;;6.43;4.47;;;14.80;99.90;;;;;;6178901;28;20042;-79
2023/09/06 03:23:21;;;;;;;8.25;4.65;;;14.80;99.90;;;;;;6178715;28;20086;-80
2023/09/06 03:26:24;;;;;;;5.85;4.05;;;14.70;99.90;;;;;;6178376;28;20091;-80
2023/09/06 03:29:27;;;;;;;4.10;3.33;;;14.70;99.90;;;;;;6177466;28;20508;-81
2023/09/06 03:32:29;;;;;;;4.40;3.47;;;14.60;99.90;;;;;;6177054;28;20062;-80
2023/09/06 03:35:31;;;;;;;7.43;4.35;;;14.60;99.90;;;;;;6178962;28;20074;-81
2023/09/06 03:38:33;;;;;;;5.75;4.35;;;14.50;99.90;;;;;;6176960;28;20051;-78
2023/09/06 03:41:36;;;;;;;8.23;3.60;;;14.50;99.90;;;;;;6177196;28;20051;-79
2023/09/06 03:44:38;;;;;;;5.30;3.92;;;14.40;99.90;;;;;;6177410;28;20065;-80
2023/09/06 03:47:40;;;;;;;6.80;5.55;;;14.40;99.90;;;;;;6177046;28;20467;-80
2023/09/06 03:50:41;;;;;;;8.02;5.70;;;14.30;99.90;;;;;;6182574;28;20057;-78
2023/09/06 03:53:43;;;;;;;4.88;3.25;;;14.30;99.90;;;;;;6201357;28;20057;-81
2023/09/06 03:56:46;;;;;;;5.20;4.53;;;14.20;99.90;;;;;;6201466;28;20046;-80
2023/09/06 03:59:49;;;;;;;6.22;4.55;;;14.20;99.90;;;;;;6200791;28;20058;-80
2023/09/06 04:02:52;;;;;;;5.35;3.88;;;14.10;99.90;;;;;;6202153;28;20046;-80
2023/09/06 04:05:55;;;;;;;5.78;4.22;;;14.10;99.90;;;;;;6200753;28;20058;-80
2023/09/06 04:08:56;;;;;;;6.55;4.85;;;14.00;99.90;;;;;;6200677;28;20047;-79
2023/09/06 04:12:00;;;;;;;5.57;3.80;;;14.00;99.90;;;;;;6200744;28;20058;-80
2023/09/06 04:15:02;;;;;;;7.80;4.57;;;14.00;99.90;;;;;;6200907;28;20046;-80
2023/09/06 04:18:05;;;;;;;4.38;3.60;;;13.90;99.90;;;;;;6201332;28;20049;-78
2023/09/06 04:21:08;;;;;;;6.03;4.80;;;13.90;99.90;;;;;;6202096;28;20109;-78
2023/09/06 04:24:10;;;;;;;7.13;4.28;;;13.80;99.90;;;;;;6202677;28;20053;-79
2023/09/06 04:27:13;;;;;;;8.35;4.65;;;13.80;99.90;;;;;;6204955;28;20057;-79
2023/09/06 04:30:17;;;;;;;5.75;5.10;;;13.80;99.90;;;;;;6203326;28;20634;-80
2023/09/06 04:33:19;;;;;;;5.93;4.60;;;13.80;99.90;;;;;;6202734;28;20502;-80
2023/09/06 04:36:20;;;;;;;7.38;5.30;;;13.70;99.90;;;;;;6202352;28;20415;-79
2023/09/06 04:39:25;;;;;;;5.22;4.45;;;13.70;99.90;;;;;;6203371;28;20076;-79
2023/09/06 04:42:28;;;;;;;6.40;5.60;;;13.70;99.90;;;;;;6202445;28;20073;-79
2023/09/06 04:45:29;;;;;;;7.57;4.05;;;13.80;99.90;;;;;;6202505;28;20053;-79
2023/09/06 04:48:31;;;;;;;5.72;4.70;;;13.80;99.90;;;;;;6204167;28;20046;-79
2023/09/06 04:51:33;;;;;;;7.65;4.43;;;13.80;99.90;;;;;;6214151;28;20069;-79
2023/09/06 04:54:34;;;;;;;6.57;4.40;;;13.90;99.90;;;;;;6248501;28;20088;-78
2023/09/06 04:57:37;;;;;;;8.57;3.75;;;13.90;99.90;;;;;;6252645;28;20049;-79
2023/09/06 05:00:43;;;;;;;5.40;4.38;;;13.90;99.90;;;;;;6252009;28;20041;-79
2023/09/06 05:03:45;;;;;;;5.47;4.88;;;13.90;99.90;;;;;;6251437;28;20057;-79
2023/09/06 05:06:46;;;;;;;4.50;4.05;;;13.90;99.90;;;;;;6252841;28;20082;-79
2023/09/06 05:09:49;;;;;;;5.13;4.25;;;13.80;99.90;;;;;;6252043;28;20053;-79
2023/09/06 05:12:52;;;;;;;5.10;4.45;;;13.70;99.90;;;;;;6252153;28;20041;-79
2023/09/06 05:16:02;;;;;;;5.72;4.57;;;13.60;99.90;;;;;;6251463;28;20049;-79
2023/09/06 05:19:03;;;;;;;7.82;5.75;;;13.60;99.90;;;;;;6253016;28;20053;-79
2023/09/06 05:22:05;;;;;;;9.18;5.90;;;13.60;99.90;;;;;;6251317;28;20657;-79
2023/09/06 05:25:07;;;;;;;5.90;5.00;;;13.60;99.90;;;;;;6253386;28;20057;-79
2023/09/06 05:28:12;;;;;;;6.55;5.65;;;13.70;99.90;;;;;;6252094;28;20052;-78
2023/09/06 05:31:14;;;;;;;4.47;4.07;;;13.80;99.90;;;;;;6251775;28;20053;-79
2023/09/06 05:34:15;;;;;;;5.13;4.57;;;13.90;99.90;;;;;;6251566;28;20041;-78
2023/09/06 05:37:17;;;;;;;8.35;4.72;;;14.00;99.90;;;;;;6256509;28;20041;-79
2023/09/06 05:40:22;;;;;;;7.25;5.47;;;14.20;99.90;;;;;;6254924;28;20042;-79
2023/09/06 05:43:25;;;;;;;9.02;4.97;;;14.40;99.90;;;;;;6257274;28;20050;-80
2023/09/06 05:46:27;;;;;;;5.45;4.50;;;14.60;99.90;;;;;;6256330;28;20052;-79
2023/09/06 05:49:29;;;;;;;5.75;4.13;;;14.90;99.90;;;;;;6256043;28;20053;-80
2023/09/06 05:52:31;;;;;;;4.93;4.05;;;15.30;99.90;;;;;;6231627;28;20045;-81
2023/09/06 05:55:32;;;;;;;6.03;4.22;;;15.70;99.90;;;;;;6232658;28;20061;-80
2023/09/06 05:58:38;;;;;;;8.10;4.43;;;15.90;99.90;;;;;;6231832;28;20052;-79
2023/09/06 06:01:40;;;;;;;7.22;4.47;;;16.10;99.90;;;;;;6231080;28;20119;-79
2023/09/06 06:04:45;;;;;;;4.60;3.38;;;16.30;99.90;;;;;;6231011;28;20502;-79
2023/09/06 06:07:47;;;;;;;6.35;3.55;;;16.30;99.90;;;;;;6230998;28;20056;-79
2023/09/06 06:10:48;;;;;;;7.80;4.07;;;16.60;99.90;;;;;;6231538;28;20053;-79
2023/09/06 06:13:51;;;;;;;4.65;3.33;;;16.70;99.90;;;;;;6232306;28;20061;-79
2023/09/06 06:16:53;;;;;;;5.65;3.65;;;16.90;99.90;;;;;;6233158;28;20057;-80
2023/09/06 06:19:55;;;;;;;5.72;3.60;;;17.10;99.90;;;;;;6231701;28;20042;-81
2023/09/06 06:22:57;;;;;;;4.70;3.88;;;17.40;99.90;;;;;;6233121;28;20053;-80
2023/09/06 06:25:58;;;;;;;6.63;3.15;;;17.90;99.90;;;;;;6231703;28;20104;-80
2023/09/06 06:29:01;;;;;;;6.80;3.58;;;18.80;99.90;;;;;;6230008;28;20053;-80
2023/09/06 06:32:03;;;;;;;5.85;3.00;;;19.90;99.90;;;;;;6229383;28;20057;-80
2023/09/06 06:35:06;;;;;;;3.97;3.38;;;20.50;99.90;;;;;;6230503;28;20517;-80
2023/09/06 06:38:08;;;;;;;6.80;3.50;;;20.60;99.90;;;;;;6229545;28;20038;-80
2023/09/06 06:41:18;;;;;;;4.15;3.03;;;20.60;99.90;;;;;;6230409;28;20072;-80
2023/09/06 06:44:22;;;;;;;7.07;2.45;;;20.60;99.10;;;;;;6201318;28;20053;-79
2023/09/06 06:47:24;;;;;;;3.67;2.70;;;20.70;98.50;;;;;;6229206;28;20082;-79
2023/09/06 06:50:26;;;;;;;5.72;3.47;;;20.70;98.00;;;;;;6226185;28;20053;-79
2023/09/06 06:53:27;;;;;;;4.75;2.55;;;20.80;97.30;;;;;;6228578;28;20666;-78
2023/09/06 06:56:29;;;;;;;4.28;3.38;;;21.00;96.50;;;;;;6228458;28;20049;-78
2023/09/06 06:59:32;;;;;;;5.15;2.75;;;21.00;95.80;;;;;;6229108;28;20045;-78
2023/09/06 07:02:34;;;;;;;4.05;2.78;;;21.20;95.50;;;;;;6222354;28;20559;-84
2023/09/06 07:05:37;;;;;;;4.55;3.08;;;21.40;94.90;;;;;;6227507;28;20100;-78
2023/09/06 07:08:39;;;;;;;4.25;3.25;;;21.60;94.10;;;;;;6227267;28;20046;-78
2023/09/06 07:11:41;;;;;;;6.28;2.85;;;21.70;93.70;;;;;;6228224;28;20139;-79
2023/09/06 07:14:44;;;;;;;6.65;3.45;;;21.80;93.20;;;;;;6227903;28;20054;-79
2023/09/06 07:17:45;;;;;;;3.67;2.70;;;22.00;92.40;;;;;;6221258;28;20498;-77
2023/09/06 07:20:47;;;;;;;4.20;2.33;;;22.10;91.80;;;;;;6226847;28;20042;-79
2023/09/06 07:23:49;;;;;;;5.20;2.92;;;22.30;91.30;;;;;;6228055;28;20053;-79
2023/09/06 07:26:51;;;;;;;3.22;2.85;;;22.60;91.00;;;;;;6228028;28;20042;-79
2023/09/06 07:29:54;;;;;;;4.07;2.40;;;22.80;90.50;;;;;;6226792;28;20053;-80
2023/09/06 07:32:55;;;;;;;6.93;2.78;;;23.10;89.70;;;;;;6226953;28;20054;-79
2023/09/06 07:35:57;;;;;;;4.95;2.53;;;23.20;88.80;;;;;;6228657;28;20060;-78
2023/09/06 07:38:59;;;;;;;8.70;3.47;;;23.40;87.90;;;;;;6224438;28;20054;-79
2023/09/06 07:42:00;;;;;;;3.42;2.90;;;23.50;86.90;;;;;;6226154;28;20053;-81
2023/09/06 07:45:04;;;;;;;2.83;2.38;;;23.70;86.10;;;;;;6226239;28;20050;-79
2023/09/06 07:48:06;;;;;;;3.95;2.85;;;23.90;84.80;;;;;;6226730;28;20042;-79
2023/09/06 07:51:10;;;;;;;7.57;3.05;;;24.10;84.60;;;;;;6226471;28;20046;-78
2023/09/06 07:54:12;;;;;;;3.55;2.80;;;24.40;83.70;;;;;;6225776;28;20168;-78
2023/09/06 07:57:14;;;;;;;3.25;2.53;;;24.70;83.30;;;;;;6225909;28;20053;-79
2023/09/06 08:00:17;;;;;;;4.97;2.53;;;25.20;82.60;;;;;;6225337;28;20049;-79
2023/09/06 08:03:19;;;;;;;3.45;2.83;;;25.60;81.20;;;;;;6226033;28;20046;-79
2023/09/06 08:06:21;;;;;;;3.47;2.58;;;26.10;79.40;;;;;;6223278;28;20044;-79
2023/09/06 08:09:22;;;;;;;5.13;3.75;;;26.40;77.40;;;;;;6224567;28;20048;-78
2023/09/06 08:12:25;;;;;;;5.53;2.78;;;26.80;75.60;;;;;;6225552;28;20056;-78
2023/09/06 08:15:28;;;;;;;5.65;2.58;;;27.10;74.00;;;;;;6226100;28;20132;-78
2023/09/06 08:18:30;;;;;;;5.93;3.30;;;27.40;71.80;;;;;;6226447;28;20175;-78
2023/09/06 08:21:32;;;;;;;4.57;2.55;;;27.40;70.40;;;;;;6226959;28;20089;-78
2023/09/06 08:24:33;;;;;;;3.75;2.88;;;27.50;69.50;;;;;;6228596;28;20502;-79
2023/09/06 08:27:35;;;;;;;10.57;3.30;;;27.30;68.60;;;;;;6225442;28;20046;-77
2023/09/06 08:30:38;;;;;;;4.80;2.67;;;27.10;68.10;;;;;;6225259;28;20069;-80
2023/09/06 08:33:40;;;;;;;3.90;2.75;;;26.90;68.00;;;;;;6217410;28;20379;-77
2023/09/06 08:36:42;;;;;;;4.22;3.00;;;26.50;68.70;;;;;;6225352;28;20490;-78
2023/09/06 08:39:43;;;;;;;4.40;3.30;;;26.30;69.40;;;;;;6224783;28;20041;-79
2023/09/06 08:42:46;;;;;;;7.10;3.55;;;26.00;70.00;;;;;;6225517;28;20053;-78
2023/09/06 08:45:50;;;;;;;4.57;3.78;;;26.10;70.60;;;;;;6224266;28;20037;-80
2023/09/06 08:48:53;;;;;;;3.08;2.72;;;26.30;70.70;;;;;;6223283;28;20536;-76
2023/09/06 08:51:56;;;;;;;4.80;3.00;;;26.60;70.60;;;;;;6222718;28;20049;-78
2023/09/06 08:54:57;;;;;;;4.28;3.55;;;26.90;70.10;;;;;;6224316;28;20062;-78
2023/09/06 08:58:02;;;;;;;5.43;2.60;;;27.10;69.60;;;;;;6224238;28;20049;-77
2023/09/06 09:01:06;;;;;;;8.35;4.22;;;27.20;69.60;;;;;;6224788;28;20053;-79
2023/09/06 09:04:09;;;;;;;3.70;2.92;;;27.20;69.20;;;;;;6226363;28;20052;-80
2023/09/06 09:07:12;;;;;;;5.78;3.95;;;27.00;69.20;;;;;;6224436;28;20098;-77
2023/09/06 09:10:13;;;;;;;3.17;2.65;;;26.80;69.60;;;;;;6230111;28;20045;-78
2023/09/06 09:13:15;;;;;;;5.55;3.00;;;26.90;70.40;;;;;;6230494;28;20529;-78
2023/09/06 09:16:18;;;;;;;4.38;2.92;;;26.90;69.40;;;;;;6231375;28;20041;-78
2023/09/06 09:19:21;;;;;;;7.35;3.08;;;26.80;69.00;;;;;;6230314;28;20053;-81
2023/09/06 09:22:24;;;;;;;4.13;2.90;;;26.80;69.30;;;;;;6226936;28;20080;-77
2023/09/06 09:25:25;;;;;;;6.60;3.72;;;27.00;69.40;;;;;;6223805;28;20042;-78
2023/09/06 09:28:33;;;;;;;5.03;3.00;;;27.30;68.80;;;;;;6229143;28;20042;-78
2023/09/06 09:31:36;;;;;;;4.75;3.22;;;27.60;68.60;;;;;;6229859;28;20050;-79
2023/09/06 09:34:37;;;;;;;6.38;3.40;;;27.70;67.80;;;;;;6230391;28;20048;-78
2023/09/06 09:37:41;;;;;;;3.80;3.40;;;27.60;67.80;;;;;;6229505;28;20053;-79
2023/09/06 09:40:42;;;;;;;3.00;2.70;;;27.80;67.60;;;;;;6228441;28;20061;-78
2023/09/06 09:43:44;;;;;;;6.22;3.78;;;27.80;67.20;;;;;;6229318;28;20054;-78
2023/09/06 09:46:47;;;;;;;3.63;2.58;;;27.80;67.00;;;;;;6229575;28;20056;-78
2023/09/06 09:49:49;;;;;;;5.60;3.20;;;27.60;66.30;;;;;;6229172;28;20046;-78
2023/09/06 09:52:53;;;;;;;5.63;3.22;;;27.30;66.70;;;;;;6229295;28;20048;-78
2023/09/06 09:55:56;;;;;;;6.45;3.53;;;27.30;66.90;;;;;;6229293;28;20053;-78
2023/09/06 09:58:59;;;;;;;4.53;2.53;;;27.50;67.00;;;;;;6228674;28;20042;-79
2023/09/06 10:02:04;;;;;;;5.80;2.83;;;27.80;66.70;;;;;;6228572;28;20553;-79
2023/09/06 10:05:08;;;;;;;3.70;2.72;;;27.90;66.20;;;;;;6228838;28;20101;-79
2023/09/06 10:08:11;;;;;;;6.15;4.15;;;27.80;65.80;;;;;;6229061;28;20046;-79
2023/09/06 10:11:14;;;;;;;3.55;2.85;;;28.00;65.90;;;;;;6229371;28;20049;-79
2023/09/06 10:14:16;;;;;;;4.20;2.95;;;28.00;65.40;;;;;;6228313;28;20060;-78
2023/09/06 10:17:19;;;;;;;6.45;3.65;;;27.90;65.30;;;;;;6227773;28;20172;-79
2023/09/06 10:20:23;;;;;;;3.58;2.67;;;28.30;65.50;;;;;;6226962;28;20050;-78
2023/09/06 10:23:30;;;;;;;4.25;2.92;;;28.80;64.70;;;;;;6228262;28;20490;-78
2023/09/06 10:26:36;;;;;;;4.43;2.55;;;29.20;64.10;;;;;;6227671;28;20056;-79
2023/09/06 10:29:52;;;;;;;3.55;2.40;;;29.60;63.50;;;;;;6227515;28;20049;-78
2023/09/06 10:32:55;;;;;;;3.83;3.28;;;29.80;63.30;;;;;;6221781;28;20054;-78
2023/09/06 10:36:02;;;;;;;4.65;3.10;;;30.10;62.50;;;;;;6228954;28;20080;-80
2023/09/06 10:39:16;;;;;;;3.50;3.08;;;30.30;61.60;;;;;;6225950;28;20394;-78
2023/09/06 10:42:19;;;;;;;6.22;4.40;;;30.00;60.90;;;;;;6219759;28;20045;-78
2023/09/06 10:45:21;;;;;;;4.78;2.92;;;30.00;61.10;;;;;;6226535;28;20046;-79
2023/09/06 10:48:24;;;;;;;4.93;3.15;;;29.80;61.00;;;;;;6226763;28;20046;-78
2023/09/06 10:51:26;;;;;;;3.22;2.92;;;29.70;60.90;;;;;;6227478;28;20042;-79
2023/09/06 10:54:35;;;;;;;4.47;2.72;;;29.90;60.80;;;;;;6225903;28;20423;-80
2023/09/06 10:57:52;;;;;;;6.15;2.72;;;30.10;60.70;;;;;;6226483;28;20053;-79
2023/09/06 11:01:16;;;;;;;3.35;3.05;;;30.10;60.00;;;;;;6217431;28;20050;-80
2023/09/06 11:04:26;;;;;;;4.72;2.80;;;30.20;59.90;;;;;;6227683;28;20106;-78
2023/09/06 11:07:37;;;;;;;3.75;2.70;;;30.40;59.90;;;;;;6227294;28;20080;-79
2023/09/06 11:10:40;;;;;;;3.72;2.55;;;30.30;59.00;;;;;;6223133;28;20049;-78
2023/09/06 11:13:44;;;;;;;3.80;2.40;;;30.20;59.30;;;;;;6217687;28;20057;-79
2023/09/06 11:16:47;;;;;;;5.60;3.05;;;30.50;59.90;;;;;;6226198;28;20053;-79
2023/09/06 11:19:51;;;;;;;4.43;2.95;;;31.10;59.40;;;;;;6218646;28;20046;-79
2023/09/06 11:22:54;;;;;;;3.63;2.78;;;31.30;58.70;;;;;;6227760;28;20161;-79
2023/09/06 11:25:59;;;;;;;4.18;3.75;;;31.40;58.10;;;;;;6225311;28;20062;-79
2023/09/06 11:29:03;;;;;;;5.68;3.70;;;31.40;57.70;;;;;;6225799;28;20068;-79
2023/09/06 11:32:13;;;;;;;4.53;3.15;;;31.30;57.40;;;;;;6222290;28;20518;-80
2023/09/06 11:35:16;;;;;;;4.90;3.17;;;31.20;57.00;;;;;;6224714;28;20053;-79
2023/09/06 11:38:25;;;;;;;7.28;3.42;;;31.20;56.90;;;;;;6225097;28;20418;-79
2023/09/06 11:41:28;;;;;;;3.95;3.13;;;31.10;56.80;;;;;;6224912;28;20064;-79
2023/09/06 11:44:30;;;;;;;3.95;3.05;;;31.30;56.50;;;;;;6226043;28;20081;-80
2023/09/06 11:47:32;;;;;;;3.92;2.83;;;31.50;56.80;;;;;;6226486;28;20426;-79
2023/09/06 11:50:38;;;;;;;5.70;2.80;;;31.80;56.30;;;;;;6225105;28;20073;-79
2023/09/06 11:53:41;;;;;;;3.45;3.15;;;32.10;55.60;;;;;;6226335;28;20046;-80
2023/09/06 11:56:47;;;;;;;3.00;2.58;;;31.90;55.40;;;;;;6225604;28;20053;-79
2023/09/06 11:59:52;;;;;;;5.55;2.45;;;31.70;55.10;;;;;;6226755;28;20604;-80
2023/09/06 12:02:55;;;;;;;3.30;3.00;;;31.60;55.60;;;;;;6218216;28;20053;-79
2023/09/06 12:06:00;;;;;;;3.40;2.92;;;31.60;55.70;;;;;;6225884;28;20071;-80
2023/09/06 12:09:02;;;;;;;3.85;2.85;;;31.60;55.50;;;;;;6226271;28;20124;-80
2023/09/06 12:12:06;;;;;;;5.63;3.42;;;32.00;55.20;;;;;;6224993;28;20387;-78
2023/09/06 12:15:13;;;;;;;5.65;3.15;;;32.00;54.60;;;;;;6226430;28;20054;-80
2023/09/06 12:18:15;;;;;;;4.13;2.83;;;31.90;54.70;;;;;;6225433;28;20068;-80
2023/09/06 12:21:21;;;;;;;3.50;3.03;;;31.90;54.60;;;;;;6225970;28;20068;-79
2023/09/06 12:24:24;;;;;;;4.22;3.03;;;31.80;55.00;;;;;;6226618;28;20042;-80
2023/09/06 12:27:25;;;;;;;4.28;2.45;;;31.90;54.50;;;;;;6225551;28;20127;-79
2023/09/06 12:30:27;;;;;;;4.53;2.30;;;31.80;54.30;;;;;;6224609;28;20037;-79
2023/09/06 12:33:29;;;;;;;7.47;3.00;;;31.70;53.80;;;;;;6224760;28;20053;-79
2023/09/06 12:36:32;;;;;;;5.00;2.65;;;31.50;54.40;;;;;;6224986;28;20046;-79
2023/09/06 12:39:34;;;;;;;3.45;2.78;;;31.60;54.70;;;;;;6225294;28;20046;-80
2023/09/06 12:42:36;;;;;;;3.22;2.85;;;31.70;54.70;;;;;;6222200;28;20049;-79
2023/09/06 12:45:37;;;;;;;3.35;2.72;;;31.70;54.70;;;;;;6225107;28;20042;-80
2023/09/06 12:48:41;;;;;;;2.92;2.63;;;31.70;54.90;;;;;;6224789;28;20057;-80
2023/09/06 12:51:47;;;;;;;3.70;3.38;;;32.00;55.30;;;;;;6224522;28;20127;-80
2023/09/06 12:54:49;;;;;;;4.07;2.58;;;32.30;54.50;;;;;;6225903;28;20057;-80
2023/09/06 12:57:51;;;;;;;5.10;3.17;;;32.70;54.40;;;;;;6225688;28;20045;-80
2023/09/06 13:00:54;;;;;;;3.38;2.70;;;33.10;53.30;;;;;;6224503;28;20102;-79
2023/09/06 13:03:56;;;;;;;3.10;2.22;;;33.00;53.00;;;;;;6225313;28;20077;-80
2023/09/06 13:06:59;;;;;;;3.38;2.47;;;32.80;53.00;;;;;;6225202;28;20045;-80
2023/09/06 13:10:00;;;;;;;5.60;2.97;;;32.70;53.50;;;;;;6225182;28;20042;-80
2023/09/06 13:13:02;;;;;;;3.75;2.83;;;33.00;53.60;;;;;;6225589;28;20042;-79
2023/09/06 13:16:06;;;;;;;5.35;2.53;;;33.30;52.80;;;;;;6225867;28;20066;-80
2023/09/06 13:19:09;;;;;;;2.83;2.40;;;33.30;52.30;;;;;;6226204;28;20050;-80
2023/09/06 13:22:13;;;;;;;3.15;2.70;;;33.40;52.30;;;;;;6225932;28;20128;-80
2023/09/06 13:25:15;;;;;;;2.92;2.13;;;33.40;51.80;;;;;;6225656;28;20053;-80
2023/09/06 13:28:17;;;;;;;3.95;2.80;;;33.20;51.80;;;;;;6225497;28;20077;-80
2023/09/06 13:31:19;;;;;;;2.95;2.65;;;33.30;51.60;;;;;;6225050;28;20049;-80
2023/09/06 13:34:20;;;;;;;3.00;2.65;;;33.20;51.10;;;;;;6219700;28;20074;-79
2023/09/06 13:37:23;;;;;;;5.60;3.88;;;33.20;51.20;;;;;;6224941;28;20045;-80
2023/09/06 13:40:25;;;;;;;5.95;2.80;;;33.40;51.10;;;;;;6225603;28;20073;-80
2023/09/06 13:43:27;;;;;;;2.70;2.35;;;33.80;50.80;;;;;;6225970;28;20042;-80
2023/09/06 13:46:29;;;;;;;2.30;1.92;;;33.90;50.80;;;;;;6226319;28;20046;-79
2023/09/06 13:49:31;;;;;;;2.83;2.38;;;34.30;50.20;;;;;;6226434;28;20046;-79
2023/09/06 13:52:34;;;;;;;3.25;2.95;;;34.50;49.70;;;;;;6226294;28;20042;-79
2023/09/06 13:55:36;;;;;;;2.95;2.40;;;34.30;49.00;;;;;;6227313;28;20046;-81
2023/09/06 13:58:38;;;;;;;3.03;2.15;;;34.10;49.70;;;;;;6231315;28;20103;-80
2023/09/06 14:01:40;;;;;;;7.22;2.83;;;34.30;49.90;;;;;;6229249;28;20045;-80
2023/09/06 14:04:41;;;;;;;2.83;2.38;;;34.50;49.70;;;;;;6231338;28;20046;-80
2023/09/06 14:07:44;;;;;;;2.88;2.67;;;34.60;49.60;;;;;;6230922;28;20143;-80
2023/09/06 14:10:46;;;;;;;4.88;2.53;;;34.70;48.90;;;;;;6232769;28;20053;-80
2023/09/06 14:13:48;;;;;;;3.58;2.38;;;34.50;48.70;;;;;;6229555;28;20053;-80
2023/09/06 14:16:49;;;;;;;3.53;2.35;;;34.30;48.60;;;;;;6229697;28;20462;-79
2023/09/06 14:19:51;;;;;;;3.33;2.70;;;34.30;48.90;;;;;;6230413;28;20042;-81
2023/09/06 14:22:54;;;;;;;5.03;2.60;;;34.30;48.50;;;;;;6229026;28;20135;-80
2023/09/06 14:25:56;;;;;;;4.57;2.60;;;34.20;48.70;;;;;;6227674;28;20440;-80
2023/09/06 14:28:58;;;;;;;3.78;2.55;;;34.30;49.00;;;;;;6229214;28;20054;-79
2023/09/06 14:32:00;;;;;;;4.60;3.03;;;34.60;48.90;;;;;;6228343;28;20109;-80
2023/09/06 14:35:02;;;;;;;6.15;2.65;;;34.70;48.40;;;;;;6227324;28;20050;-80
2023/09/06 14:38:06;;;;;;;2.88;2.53;;;34.50;48.10;;;;;;6226146;28;20046;-79
2023/09/06 14:41:08;;;;;;;3.17;2.05;;;34.40;48.30;;;;;;6228397;28;20053;-79
2023/09/06 14:44:09;;;;;;;2.72;2.53;;;34.60;48.00;;;;;;6220694;28;20039;-80
2023/09/06 14:47:11;;;;;;;2.47;2.08;;;34.60;47.50;;;;;;6228621;28;20560;-79
2023/09/06 14:50:13;;;;;;;4.40;3.15;;;34.40;47.40;;;;;;6227404;28;20410;-79
2023/09/06 14:53:16;;;;;;;3.60;2.83;;;34.10;47.30;;;;;;6227900;28;20049;-79
2023/09/06 14:56:18;;;;;;;3.63;2.58;;;34.10;47.70;;;;;;6226831;28;20037;-80
2023/09/06 14:59:19;;;;;;;3.40;2.70;;;34.00;47.60;;;;;;6227523;28;20050;-79
2023/09/06 15:02:21;;;;;;;4.18;2.55;;;33.90;47.60;;;;;;6227702;28;20057;-80
2023/09/06 15:05:23;;;;;;;2.92;2.08;;;34.00;47.90;;;;;;6228954;28;20038;-79
2023/09/06 15:08:26;;;;;;;2.53;2.25;;;33.70;47.50;;;;;;6227649;28;20533;-79
2023/09/06 15:11:28;;;;;;;4.13;2.72;;;33.10;47.90;;;;;;6227586;28;20060;-79
2023/09/06 15:14:30;;;;;;;3.28;2.67;;;32.80;48.30;;;;;;6228070;28;20432;-79
2023/09/06 15:17:32;;;;;;;2.20;2.00;;;32.30;48.50;;;;;;6227181;28;20413;-77
2023/09/06 15:20:34;;;;;;;3.63;2.85;;;32.10;48.90;;;;;;6227512;28;20050;-79
2023/09/06 15:23:37;;;;;;;3.90;2.85;;;31.70;49.30;;;;;;6229949;28;20056;-79
2023/09/06 15:26:40;;;;;;;5.85;2.75;;;31.60;50.00;;;;;;6227970;28;20045;-79
2023/09/06 15:29:44;;;;;;;5.38;3.40;;;31.50;50.30;;;;;;6227385;28;20053;-78
2023/09/06 15:32:45;;;;;;;3.85;2.45;;;31.30;50.60;;;;;;6227296;28;20122;-79
2023/09/06 15:35:47;;;;;;;6.13;2.83;;;31.10;51.20;;;;;;6223747;28;20411;-79
2023/09/06 15:38:50;;;;;;;3.47;2.90;;;31.00;51.40;;;;;;6228536;28;20050;-78
2023/09/06 15:41:52;;;;;;;3.20;2.90;;;30.80;51.70;;;;;;6227578;28;20058;-80
2023/09/06 15:44:53;;;;;;;4.22;3.05;;;30.70;51.90;;;;;;6227345;28;20053;-79
2023/09/06 15:47:55;;;;;;;5.18;2.75;;;30.60;52.00;;;;;;6226316;28;20058;-79
2023/09/06 15:50:57;;;;;;;9.13;2.85;;;30.50;52.40;;;;;;6227093;28;20053;-81
2023/09/06 15:54:00;;;;;;;4.07;3.20;;;30.50;52.40;;;;;;6226500;28;20041;-78